sensor_id;sensor_type;location;lat;lon;timestamp;temperature;humidity
35804;DHT22;21924;51.934;7.414;2022-07-05T00:02:34;15.60;99.90
35804;DHT22;21924;51.934;7.414;2022-07-05T00:05:18;15.60;99.90
35804;DHT22;21924;51.934;7.414;2022-07-05T00:08:02;15.60;99.90
35804;DHT22;21924;51.934;7.414;2022-07-05T00:10:47;15.60;99.90
35804;DHT22;21924;51.934;7.414;2022-07-05T00:13:32;15.60;99.90
35804;DHT22;21924;51.934;7.414;2022-07-05T00:16:16;15.70;99.90
35804;DHT22;21924;51.934;7.414;2022-07-05T00:19:01;15.90;99.90
35804;DHT22;21924;51.934;7.414;2022-07-05T00:21:45;16.00;99.90
35804;DHT22;21924;51.934;7.414;2022-07-05T00:24:30;16.10;99.90
35804;DHT22;21924;51.934;7.414;2022-07-05T00:27:14;16.20;99.90
35804;DHT22;21924;51.934;7.414;2022-07-05T00:29:59;16.20;99.90
35804;DHT22;21924;51.934;7.414;2022-07-05T00:32:43;16.30;99.90
35804;DHT22;21924;51.934;7.414;2022-07-05T00:35:27;16.40;99.90
35804;DHT22;21924;51.934;7.414;2022-07-05T00:38:11;16.30;99.90
35804;DHT22;21924;51.934;7.414;2022-07-05T00:40:55;16.40;99.90
35804;DHT22;21924;51.934;7.414;2022-07-05T00:43:54;16.40;99.90
35804;DHT22;21924;51.934;7.414;2022-07-05T00:46:39;16.40;99.90
35804;DHT22;21924;51.934;7.414;2022-07-05T00:49:26;16.30;99.90
35804;DHT22;21924;51.934;7.414;2022-07-05T00:52:11;16.30;99.90
35804;DHT22;21924;51.934;7.414;2022-07-05T00:54:56;16.20;99.90
35804;DHT22;21924;51.934;7.414;2022-07-05T00:57:40;16.20;99.90
35804;DHT22;21924;51.934;7.414;2022-07-05T01:00:24;16.10;99.90
35804;DHT22;21924;51.934;7.414;2022-07-05T01:03:08;16.00;99.90
35804;DHT22;21924;51.934;7.414;2022-07-05T01:05:52;15.80;99.90
35804;DHT22;21924;51.934;7.414;2022-07-05T01:08:42;15.80;99.90
35804;DHT22;21924;51.934;7.414;2022-07-05T01:11:26;15.70;99.90
35804;DHT22;21924;51.934;7.414;2022-07-05T01:14:17;15.70;99.90
35804;DHT22;21924;51.934;7.414;2022-07-05T01:17:01;15.70;99.90
35804;DHT22;21924;51.934;7.414;2022-07-05T01:19:45;15.60;99.90
35804;DHT22;21924;51.934;7.414;2022-07-05T01:25:34;15.50;99.90
35804;DHT22;21924;51.934;7.414;2022-07-05T01:28:18;15.50;99.90
35804;DHT22;21924;51.934;7.414;2022-07-05T01:31:02;15.40;99.90
35804;DHT22;21924;51.934;7.414;2022-07-05T01:33:47;15.40;99.90
35804;DHT22;21924;51.934;7.414;2022-07-05T01:36:33;15.30;99.90
35804;DHT22;21924;51.934;7.414;2022-07-05T01:39:17;15.30;99.90
35804;DHT22;21924;51.934;7.414;2022-07-05T01:42:03;15.30;99.90
35804;DHT22;21924;51.934;7.414;2022-07-05T01:44:47;15.30;99.90
35804;DHT22;21924;51.934;7.414;2022-07-05T01:47:44;15.30;99.90
35804;DHT22;21924;51.934;7.414;2022-07-05T01:50:33;15.30;99.90
35804;DHT22;21924;51.934;7.414;2022-07-05T01:53:23;15.20;99.90
35804;DHT22;21924;51.934;7.414;2022-07-05T01:56:07;15.10;99.90
35804;DHT22;21924;51.934;7.414;2022-07-05T01:58:52;15.10;99.90
35804;DHT22;21924;51.934;7.414;2022-07-05T02:01:38;15.00;99.90
35804;DHT22;21924;51.934;7.414;2022-07-05T02:04:23;14.90;99.90
35804;DHT22;21924;51.934;7.414;2022-07-05T02:07:09;14.80;99.90
35804;DHT22;21924;51.934;7.414;2022-07-05T02:09:54;14.70;99.90
35804;DHT22;21924;51.934;7.414;2022-07-05T02:12:38;14.60;99.90
35804;DHT22;21924;51.934;7.414;2022-07-05T02:15:22;14.50;99.90
35804;DHT22;21924;51.934;7.414;2022-07-05T02:18:07;14.50;99.90
35804;DHT22;21924;51.934;7.414;2022-07-05T02:20:51;14.50;99.90
35804;DHT22;21924;51.934;7.414;2022-07-05T02:23:35;14.30;99.90
35804;DHT22;21924;51.934;7.414;2022-07-05T02:26:21;14.30;99.90
35804;DHT22;21924;51.934;7.414;2022-07-05T02:29:05;14.30;99.90
35804;DHT22;21924;51.934;7.414;2022-07-05T02:31:50;14.30;99.90
35804;DHT22;21924;51.934;7.414;2022-07-05T02:34:35;14.30;99.90
35804;DHT22;21924;51.934;7.414;2022-07-05T02:37:19;14.30;99.90
35804;DHT22;21924;51.934;7.414;2022-07-05T02:40:03;14.40;99.90
35804;DHT22;21924;51.934;7.414;2022-07-05T02:42:49;14.40;99.90
35804;DHT22;21924;51.934;7.414;2022-07-05T02:45:33;14.40;99.90
35804;DHT22;21924;51.934;7.414;2022-07-05T02:48:17;14.30;99.90
35804;DHT22;21924;51.934;7.414;2022-07-05T02:51:02;14.40;99.90
35804;DHT22;21924;51.934;7.414;2022-07-05T02:53:47;14.30;99.90
35804;DHT22;21924;51.934;7.414;2022-07-05T02:56:31;14.30;99.90
35804;DHT22;21924;51.934;7.414;2022-07-05T02:59:15;14.40;99.90
35804;DHT22;21924;51.934;7.414;2022-07-05T03:01:59;14.40;99.90
35804;DHT22;21924;51.934;7.414;2022-07-05T03:04:43;14.40;99.90
35804;DHT22;21924;51.934;7.414;2022-07-05T03:07:27;14.50;99.90
35804;DHT22;21924;51.934;7.414;2022-07-05T03:10:11;14.50;99.90
35804;DHT22;21924;51.934;7.414;2022-07-05T03:12:55;14.60;99.90
35804;DHT22;21924;51.934;7.414;2022-07-05T03:15:40;14.50;99.90
35804;DHT22;21924;51.934;7.414;2022-07-05T03:18:24;14.50;99.90
35804;DHT22;21924;51.934;7.414;2022-07-05T03:21:08;14.50;99.90
35804;DHT22;21924;51.934;7.414;2022-07-05T03:23:52;14.40;99.90
35804;DHT22;21924;51.934;7.414;2022-07-05T03:26:36;14.40;99.90
35804;DHT22;21924;51.934;7.414;2022-07-05T03:29:20;14.30;99.90
35804;DHT22;21924;51.934;7.414;2022-07-05T03:32:05;14.20;99.90
35804;DHT22;21924;51.934;7.414;2022-07-05T03:34:49;14.10;99.90
35804;DHT22;21924;51.934;7.414;2022-07-05T03:37:33;14.10;99.90
35804;DHT22;21924;51.934;7.414;2022-07-05T03:40:17;13.90;99.90
35804;DHT22;21924;51.934;7.414;2022-07-05T03:43:01;13.90;99.90
35804;DHT22;21924;51.934;7.414;2022-07-05T03:45:45;13.80;99.90
35804;DHT22;21924;51.934;7.414;2022-07-05T03:48:29;13.80;99.90
35804;DHT22;21924;51.934;7.414;2022-07-05T03:51:13;13.80;99.90
35804;DHT22;21924;51.934;7.414;2022-07-05T03:53:57;13.80;99.90
35804;DHT22;21924;51.934;7.414;2022-07-05T03:56:41;13.80;99.90
35804;DHT22;21924;51.934;7.414;2022-07-05T03:59:26;13.70;99.90
35804;DHT22;21924;51.934;7.414;2022-07-05T04:02:10;13.80;99.90
35804;DHT22;21924;51.934;7.414;2022-07-05T04:04:54;13.70;99.90
35804;DHT22;21924;51.934;7.414;2022-07-05T04:07:54;13.70;99.90
35804;DHT22;21924;51.934;7.414;2022-07-05T04:10:39;13.70;99.90
35804;DHT22;21924;51.934;7.414;2022-07-05T04:13:23;13.80;99.90
35804;DHT22;21924;51.934;7.414;2022-07-05T04:16:08;13.80;99.90
35804;DHT22;21924;51.934;7.414;2022-07-05T04:18:52;13.80;99.90
35804;DHT22;21924;51.934;7.414;2022-07-05T04:21:37;13.90;99.90
35804;DHT22;21924;51.934;7.414;2022-07-05T04:24:21;13.90;99.90
35804;DHT22;21924;51.934;7.414;2022-07-05T04:27:05;14.20;99.90
35804;DHT22;21924;51.934;7.414;2022-07-05T04:29:49;14.60;99.90
35804;DHT22;21924;51.934;7.414;2022-07-05T04:32:34;15.20;99.90
35804;DHT22;21924;51.934;7.414;2022-07-05T04:35:18;15.60;99.90
35804;DHT22;21924;51.934;7.414;2022-07-05T04:38:02;15.90;99.90
35804;DHT22;21924;51.934;7.414;2022-07-05T04:40:46;16.10;99.90
35804;DHT22;21924;51.934;7.414;2022-07-05T04:43:31;16.40;99.90
35804;DHT22;21924;51.934;7.414;2022-07-05T04:46:16;16.80;99.90
35804;DHT22;21924;51.934;7.414;2022-07-05T04:49:01;16.90;99.90
35804;DHT22;21924;51.934;7.414;2022-07-05T04:51:45;17.30;99.90
35804;DHT22;21924;51.934;7.414;2022-07-05T04:54:29;17.60;99.90
35804;DHT22;21924;51.934;7.414;2022-07-05T04:57:13;17.70;99.90
35804;DHT22;21924;51.934;7.414;2022-07-05T04:59:57;18.20;99.90
35804;DHT22;21924;51.934;7.414;2022-07-05T05:02:41;18.10;99.90
35804;DHT22;21924;51.934;7.414;2022-07-05T05:05:25;17.70;99.90
35804;DHT22;21924;51.934;7.414;2022-07-05T05:08:09;17.50;99.90
35804;DHT22;21924;51.934;7.414;2022-07-05T05:10:53;17.20;99.90
35804;DHT22;21924;51.934;7.414;2022-07-05T05:13:37;17.00;99.90
35804;DHT22;21924;51.934;7.414;2022-07-05T05:16:21;16.90;99.90
35804;DHT22;21924;51.934;7.414;2022-07-05T05:19:05;16.80;99.90
35804;DHT22;21924;51.934;7.414;2022-07-05T05:21:50;16.80;99.90
35804;DHT22;21924;51.934;7.414;2022-07-05T05:24:35;16.90;99.90
35804;DHT22;21924;51.934;7.414;2022-07-05T05:27:19;16.90;99.90
35804;DHT22;21924;51.934;7.414;2022-07-05T05:30:06;16.80;99.90
35804;DHT22;21924;51.934;7.414;2022-07-05T05:32:50;16.80;99.90
35804;DHT22;21924;51.934;7.414;2022-07-05T05:35:34;16.80;99.90
35804;DHT22;21924;51.934;7.414;2022-07-05T05:38:19;16.80;99.90
35804;DHT22;21924;51.934;7.414;2022-07-05T05:41:03;16.90;99.90
35804;DHT22;21924;51.934;7.414;2022-07-05T05:43:47;17.00;99.90
35804;DHT22;21924;51.934;7.414;2022-07-05T05:46:31;17.10;99.90
35804;DHT22;21924;51.934;7.414;2022-07-05T05:49:15;17.10;99.90
35804;DHT22;21924;51.934;7.414;2022-07-05T05:52:00;17.20;99.90
35804;DHT22;21924;51.934;7.414;2022-07-05T05:54:43;17.30;99.90
35804;DHT22;21924;51.934;7.414;2022-07-05T05:57:28;17.30;99.90
35804;DHT22;21924;51.934;7.414;2022-07-05T06:00:12;17.50;99.90
35804;DHT22;21924;51.934;7.414;2022-07-05T06:02:59;17.60;99.90
35804;DHT22;21924;51.934;7.414;2022-07-05T06:05:43;17.70;99.90
35804;DHT22;21924;51.934;7.414;2022-07-05T06:08:27;17.80;99.90
35804;DHT22;21924;51.934;7.414;2022-07-05T06:11:11;18.00;99.90
35804;DHT22;21924;51.934;7.414;2022-07-05T06:13:55;18.00;99.90
35804;DHT22;21924;51.934;7.414;2022-07-05T06:16:39;18.00;99.90
35804;DHT22;21924;51.934;7.414;2022-07-05T06:19:23;18.10;99.90
35804;DHT22;21924;51.934;7.414;2022-07-05T06:22:07;18.10;99.90
35804;DHT22;21924;51.934;7.414;2022-07-05T06:24:51;18.10;99.90
35804;DHT22;21924;51.934;7.414;2022-07-05T06:27:40;18.20;99.90
35804;DHT22;21924;51.934;7.414;2022-07-05T06:30:26;18.40;99.90
35804;DHT22;21924;51.934;7.414;2022-07-05T06:33:10;18.60;99.90
35804;DHT22;21924;51.934;7.414;2022-07-05T06:35:54;18.60;99.90
35804;DHT22;21924;51.934;7.414;2022-07-05T06:38:38;18.60;99.90
35804;DHT22;21924;51.934;7.414;2022-07-05T06:41:22;18.80;99.90
35804;DHT22;21924;51.934;7.414;2022-07-05T06:44:06;18.80;99.90
35804;DHT22;21924;51.934;7.414;2022-07-05T06:46:50;18.90;99.90
35804;DHT22;21924;51.934;7.414;2022-07-05T06:49:34;18.80;99.90
35804;DHT22;21924;51.934;7.414;2022-07-05T06:52:19;19.00;99.90
35804;DHT22;21924;51.934;7.414;2022-07-05T06:55:03;19.10;99.90
35804;DHT22;21924;51.934;7.414;2022-07-05T06:57:47;19.10;99.90
35804;DHT22;21924;51.934;7.414;2022-07-05T07:00:32;19.30;99.90
35804;DHT22;21924;51.934;7.414;2022-07-05T07:03:16;19.20;99.90
35804;DHT22;21924;51.934;7.414;2022-07-05T07:06:01;19.20;99.90
35804;DHT22;21924;51.934;7.414;2022-07-05T07:08:44;19.10;99.90
35804;DHT22;21924;51.934;7.414;2022-07-05T07:11:48;19.30;99.90
35804;DHT22;21924;51.934;7.414;2022-07-05T07:14:33;19.10;99.90
35804;DHT22;21924;51.934;7.414;2022-07-05T07:17:17;19.10;99.90
35804;DHT22;21924;51.934;7.414;2022-07-05T07:20:01;19.10;99.90
35804;DHT22;21924;51.934;7.414;2022-07-05T07:22:46;19.30;99.90
35804;DHT22;21924;51.934;7.414;2022-07-05T07:25:30;19.50;99.90
35804;DHT22;21924;51.934;7.414;2022-07-05T07:28:14;19.50;99.90
35804;DHT22;21924;51.934;7.414;2022-07-05T07:30:59;19.50;99.90
35804;DHT22;21924;51.934;7.414;2022-07-05T07:33:43;19.40;99.90
35804;DHT22;21924;51.934;7.414;2022-07-05T07:36:27;19.50;99.90
35804;DHT22;21924;51.934;7.414;2022-07-05T07:39:11;19.60;99.90
35804;DHT22;21924;51.934;7.414;2022-07-05T07:41:55;19.60;99.90
35804;DHT22;21924;51.934;7.414;2022-07-05T07:44:40;19.70;99.90
35804;DHT22;21924;51.934;7.414;2022-07-05T07:47:24;19.50;99.90
35804;DHT22;21924;51.934;7.414;2022-07-05T07:50:08;19.50;99.90
35804;DHT22;21924;51.934;7.414;2022-07-05T07:52:53;19.60;99.90
35804;DHT22;21924;51.934;7.414;2022-07-05T07:55:37;19.70;99.90
35804;DHT22;21924;51.934;7.414;2022-07-05T07:58:21;19.90;99.90
35804;DHT22;21924;51.934;7.414;2022-07-05T08:01:05;20.00;99.90
35804;DHT22;21924;51.934;7.414;2022-07-05T08:03:54;20.00;99.90
35804;DHT22;21924;51.934;7.414;2022-07-05T08:06:39;20.10;99.90
35804;DHT22;21924;51.934;7.414;2022-07-05T08:09:23;19.90;99.90
35804;DHT22;21924;51.934;7.414;2022-07-05T08:12:07;20.10;99.90
35804;DHT22;21924;51.934;7.414;2022-07-05T08:14:51;20.10;99.90
35804;DHT22;21924;51.934;7.414;2022-07-05T08:17:35;20.00;99.90
35804;DHT22;21924;51.934;7.414;2022-07-05T08:20:20;20.10;99.90
35804;DHT22;21924;51.934;7.414;2022-07-05T08:23:23;20.30;99.90
35804;DHT22;21924;51.934;7.414;2022-07-05T08:26:07;20.40;99.90
35804;DHT22;21924;51.934;7.414;2022-07-05T08:28:51;20.60;99.90
35804;DHT22;21924;51.934;7.414;2022-07-05T08:31:38;20.60;99.90
35804;DHT22;21924;51.934;7.414;2022-07-05T08:34:23;20.50;99.90
35804;DHT22;21924;51.934;7.414;2022-07-05T08:37:07;20.60;99.90
35804;DHT22;21924;51.934;7.414;2022-07-05T08:39:52;20.70;99.90
35804;DHT22;21924;51.934;7.414;2022-07-05T08:42:36;20.60;99.90
35804;DHT22;21924;51.934;7.414;2022-07-05T08:45:22;20.70;99.90
35804;DHT22;21924;51.934;7.414;2022-07-05T08:48:09;21.10;99.90
35804;DHT22;21924;51.934;7.414;2022-07-05T08:50:54;21.40;99.90
35804;DHT22;21924;51.934;7.414;2022-07-05T08:53:40;21.40;99.90
35804;DHT22;21924;51.934;7.414;2022-07-05T08:56:25;21.50;99.90
35804;DHT22;21924;51.934;7.414;2022-07-05T08:59:10;21.50;99.90
35804;DHT22;21924;51.934;7.414;2022-07-05T09:01:56;21.50;99.90
35804;DHT22;21924;51.934;7.414;2022-07-05T09:04:45;21.50;99.90
35804;DHT22;21924;51.934;7.414;2022-07-05T09:07:32;21.60;99.90
35804;DHT22;21924;51.934;7.414;2022-07-05T09:10:20;21.70;99.90
35804;DHT22;21924;51.934;7.414;2022-07-05T09:13:05;21.70;99.90
35804;DHT22;21924;51.934;7.414;2022-07-05T09:15:49;21.90;99.90
35804;DHT22;21924;51.934;7.414;2022-07-05T09:21:27;21.80;99.90
35804;DHT22;21924;51.934;7.414;2022-07-05T09:24:12;21.90;99.90
35804;DHT22;21924;51.934;7.414;2022-07-05T09:27:03;21.90;99.90
35804;DHT22;21924;51.934;7.414;2022-07-05T09:29:54;22.10;99.90
35804;DHT22;21924;51.934;7.414;2022-07-05T09:32:39;22.10;99.90
35804;DHT22;21924;51.934;7.414;2022-07-05T09:35:24;22.40;99.90
35804;DHT22;21924;51.934;7.414;2022-07-05T09:38:22;22.60;99.90
35804;DHT22;21924;51.934;7.414;2022-07-05T09:41:11;22.70;99.90
35804;DHT22;21924;51.934;7.414;2022-07-05T09:43:56;22.90;99.90
35804;DHT22;21924;51.934;7.414;2022-07-05T09:46:40;22.70;99.90
35804;DHT22;21924;51.934;7.414;2022-07-05T09:49:25;22.40;99.90
35804;DHT22;21924;51.934;7.414;2022-07-05T09:52:11;22.10;99.90
35804;DHT22;21924;51.934;7.414;2022-07-05T09:55:14;21.90;99.90
35804;DHT22;21924;51.934;7.414;2022-07-05T09:58:03;21.60;99.90
35804;DHT22;21924;51.934;7.414;2022-07-05T10:00:47;21.50;99.90
35804;DHT22;21924;51.934;7.414;2022-07-05T10:03:51;21.20;99.90
35804;DHT22;21924;51.934;7.414;2022-07-05T10:06:36;21.30;99.90
35804;DHT22;21924;51.934;7.414;2022-07-05T10:09:21;21.50;99.90
35804;DHT22;21924;51.934;7.414;2022-07-05T10:12:05;21.80;99.90
35804;DHT22;21924;51.934;7.414;2022-07-05T10:14:50;21.80;99.90
35804;DHT22;21924;51.934;7.414;2022-07-05T10:17:36;21.70;99.90
35804;DHT22;21924;51.934;7.414;2022-07-05T10:20:42;21.80;99.90
35804;DHT22;21924;51.934;7.414;2022-07-05T10:23:27;21.80;99.90
35804;DHT22;21924;51.934;7.414;2022-07-05T10:26:12;22.10;99.90
35804;DHT22;21924;51.934;7.414;2022-07-05T10:28:57;22.40;99.90
35804;DHT22;21924;51.934;7.414;2022-07-05T10:31:42;22.80;99.90
35804;DHT22;21924;51.934;7.414;2022-07-05T10:34:27;22.90;99.90
35804;DHT22;21924;51.934;7.414;2022-07-05T10:37:12;22.80;99.90
35804;DHT22;21924;51.934;7.414;2022-07-05T10:39:58;22.70;99.90
35804;DHT22;21924;51.934;7.414;2022-07-05T10:42:46;22.50;99.90
35804;DHT22;21924;51.934;7.414;2022-07-05T10:45:39;22.50;99.90
35804;DHT22;21924;51.934;7.414;2022-07-05T10:48:27;23.10;99.90
35804;DHT22;21924;51.934;7.414;2022-07-05T10:54:01;24.50;99.90
35804;DHT22;21924;51.934;7.414;2022-07-05T10:57:21;24.40;99.70
35804;DHT22;21924;51.934;7.414;2022-07-05T11:00:10;24.00;99.60
35804;DHT22;21924;51.934;7.414;2022-07-05T11:03:08;23.60;99.90
35804;DHT22;21924;51.934;7.414;2022-07-05T11:06:28;23.40;99.80
35804;DHT22;21924;51.934;7.414;2022-07-05T11:09:18;23.80;99.50
35804;DHT22;21924;51.934;7.414;2022-07-05T11:12:03;24.10;98.80
35804;DHT22;21924;51.934;7.414;2022-07-05T11:14:49;24.00;98.80
35804;DHT22;21924;51.934;7.414;2022-07-05T11:17:34;23.90;98.70
35804;DHT22;21924;51.934;7.414;2022-07-05T11:20:29;24.30;96.80
35804;DHT22;21924;51.934;7.414;2022-07-05T11:23:13;25.00;96.40
35804;DHT22;21924;51.934;7.414;2022-07-05T11:25:57;24.90;96.50
35804;DHT22;21924;51.934;7.414;2022-07-05T11:28:46;24.80;96.50
35804;DHT22;21924;51.934;7.414;2022-07-05T11:31:40;24.30;97.00
35804;DHT22;21924;51.934;7.414;2022-07-05T11:34:33;23.70;97.50
35804;DHT22;21924;51.934;7.414;2022-07-05T11:42:55;23.10;97.70
35804;DHT22;21924;51.934;7.414;2022-07-05T11:45:40;23.20;98.10
35804;DHT22;21924;51.934;7.414;2022-07-05T11:48:29;23.20;98.60
35804;DHT22;21924;51.934;7.414;2022-07-05T11:51:14;23.30;97.70
35804;DHT22;21924;51.934;7.414;2022-07-05T11:53:58;23.30;98.90
35804;DHT22;21924;51.934;7.414;2022-07-05T11:56:45;23.70;99.10
35804;DHT22;21924;51.934;7.414;2022-07-05T11:59:29;23.80;97.70
35804;DHT22;21924;51.934;7.414;2022-07-05T12:02:13;24.10;97.80
35804;DHT22;21924;51.934;7.414;2022-07-05T12:04:58;24.50;97.30
35804;DHT22;21924;51.934;7.414;2022-07-05T12:07:52;24.90;98.00
35804;DHT22;21924;51.934;7.414;2022-07-05T12:10:37;24.80;97.20
35804;DHT22;21924;51.934;7.414;2022-07-05T12:13:47;24.70;97.80
35804;DHT22;21924;51.934;7.414;2022-07-05T12:16:31;25.10;98.50
35804;DHT22;21924;51.934;7.414;2022-07-05T12:19:26;25.20;96.40
35804;DHT22;21924;51.934;7.414;2022-07-05T12:22:11;25.10;96.00
35804;DHT22;21924;51.934;7.414;2022-07-05T12:24:55;25.20;95.90
35804;DHT22;21924;51.934;7.414;2022-07-05T12:27:43;25.30;96.20
35804;DHT22;21924;51.934;7.414;2022-07-05T12:30:28;25.70;96.20
35804;DHT22;21924;51.934;7.414;2022-07-05T12:33:12;25.70;96.10
35804;DHT22;21924;51.934;7.414;2022-07-05T12:35:57;25.70;96.00
35804;DHT22;21924;51.934;7.414;2022-07-05T12:38:41;25.50;95.30
35804;DHT22;21924;51.934;7.414;2022-07-05T12:41:25;26.00;95.80
35804;DHT22;21924;51.934;7.414;2022-07-05T12:44:09;25.80;94.80
35804;DHT22;21924;51.934;7.414;2022-07-05T12:47:03;25.30;95.20
35804;DHT22;21924;51.934;7.414;2022-07-05T12:49:55;24.70;95.10
35804;DHT22;21924;51.934;7.414;2022-07-05T12:53:05;24.60;96.30
35804;DHT22;21924;51.934;7.414;2022-07-05T12:56:10;25.20;96.20
35804;DHT22;21924;51.934;7.414;2022-07-05T12:59:13;25.30;94.70
35804;DHT22;21924;51.934;7.414;2022-07-05T13:01:57;25.10;95.50
35804;DHT22;21924;51.934;7.414;2022-07-05T13:04:54;24.70;95.00
35804;DHT22;21924;51.934;7.414;2022-07-05T13:07:43;24.10;95.80
35804;DHT22;21924;51.934;7.414;2022-07-05T13:10:28;24.30;95.90
35804;DHT22;21924;51.934;7.414;2022-07-05T13:13:16;24.40;95.20
35804;DHT22;21924;51.934;7.414;2022-07-05T13:16:04;24.40;95.20
35804;DHT22;21924;51.934;7.414;2022-07-05T13:18:49;24.50;95.90
35804;DHT22;21924;51.934;7.414;2022-07-05T13:21:33;24.60;96.30
35804;DHT22;21924;51.934;7.414;2022-07-05T13:24:18;24.70;97.00
35804;DHT22;21924;51.934;7.414;2022-07-05T13:27:04;24.60;96.30
35804;DHT22;21924;51.934;7.414;2022-07-05T13:29:49;24.80;94.90
35804;DHT22;21924;51.934;7.414;2022-07-05T13:32:33;24.90;95.30
35804;DHT22;21924;51.934;7.414;2022-07-05T13:35:17;25.00;95.60
35804;DHT22;21924;51.934;7.414;2022-07-05T13:38:01;25.70;95.20
35804;DHT22;21924;51.934;7.414;2022-07-05T13:40:45;25.40;95.10
35804;DHT22;21924;51.934;7.414;2022-07-05T13:43:29;24.90;95.90
35804;DHT22;21924;51.934;7.414;2022-07-05T13:46:14;24.40;96.00
35804;DHT22;21924;51.934;7.414;2022-07-05T13:48:59;24.20;97.10
35804;DHT22;21924;51.934;7.414;2022-07-05T13:51:43;24.20;96.60
35804;DHT22;21924;51.934;7.414;2022-07-05T13:54:28;24.20;97.10
35804;DHT22;21924;51.934;7.414;2022-07-05T13:57:13;24.10;96.90
35804;DHT22;21924;51.934;7.414;2022-07-05T13:59:57;24.00;97.20
35804;DHT22;21924;51.934;7.414;2022-07-05T14:02:42;23.70;97.10
35804;DHT22;21924;51.934;7.414;2022-07-05T14:05:27;23.60;96.80
35804;DHT22;21924;51.934;7.414;2022-07-05T14:08:11;23.40;96.90
35804;DHT22;21924;51.934;7.414;2022-07-05T14:10:56;23.50;97.10
35804;DHT22;21924;51.934;7.414;2022-07-05T14:13:41;23.90;97.00
35804;DHT22;21924;51.934;7.414;2022-07-05T14:16:26;24.20;97.60
35804;DHT22;21924;51.934;7.414;2022-07-05T14:19:10;24.00;97.50
35804;DHT22;21924;51.934;7.414;2022-07-05T14:21:54;23.70;97.70
35804;DHT22;21924;51.934;7.414;2022-07-05T14:24:38;23.40;98.30
35804;DHT22;21924;51.934;7.414;2022-07-05T14:27:22;23.20;97.80
35804;DHT22;21924;51.934;7.414;2022-07-05T14:30:07;23.20;98.50
35804;DHT22;21924;51.934;7.414;2022-07-05T14:32:52;23.40;97.90
35804;DHT22;21924;51.934;7.414;2022-07-05T14:35:37;23.50;98.00
35804;DHT22;21924;51.934;7.414;2022-07-05T14:38:21;23.80;98.10
35804;DHT22;21924;51.934;7.414;2022-07-05T14:41:05;23.70;98.30
35804;DHT22;21924;51.934;7.414;2022-07-05T14:43:49;23.60;98.40
35804;DHT22;21924;51.934;7.414;2022-07-05T14:46:33;23.50;98.60
35804;DHT22;21924;51.934;7.414;2022-07-05T14:49:17;23.20;98.50
35804;DHT22;21924;51.934;7.414;2022-07-05T14:52:02;22.90;98.70
35804;DHT22;21924;51.934;7.414;2022-07-05T14:54:47;22.80;99.00
35804;DHT22;21924;51.934;7.414;2022-07-05T14:57:31;22.90;99.10
35804;DHT22;21924;51.934;7.414;2022-07-05T15:00:15;23.20;99.40
35804;DHT22;21924;51.934;7.414;2022-07-05T15:03:00;24.00;98.70
35804;DHT22;21924;51.934;7.414;2022-07-05T15:05:44;25.10;97.70
35804;DHT22;21924;51.934;7.414;2022-07-05T15:08:29;25.80;96.70
35804;DHT22;21924;51.934;7.414;2022-07-05T15:11:14;26.10;96.60
35804;DHT22;21924;51.934;7.414;2022-07-05T15:13:58;26.30;95.80
35804;DHT22;21924;51.934;7.414;2022-07-05T15:16:44;25.70;96.00
35804;DHT22;21924;51.934;7.414;2022-07-05T15:19:28;25.60;96.50
35804;DHT22;21924;51.934;7.414;2022-07-05T15:22:12;25.40;96.50
35804;DHT22;21924;51.934;7.414;2022-07-05T15:24:57;24.80;96.20
35804;DHT22;21924;51.934;7.414;2022-07-05T15:27:40;24.30;97.00
35804;DHT22;21924;51.934;7.414;2022-07-05T15:30:25;24.00;97.30
35804;DHT22;21924;51.934;7.414;2022-07-05T15:33:09;23.70;97.40
35804;DHT22;21924;51.934;7.414;2022-07-05T15:35:54;23.60;97.50
35804;DHT22;21924;51.934;7.414;2022-07-05T15:38:41;23.40;97.60
35804;DHT22;21924;51.934;7.414;2022-07-05T15:41:25;23.10;97.40
35804;DHT22;21924;51.934;7.414;2022-07-05T15:44:09;22.80;97.80
35804;DHT22;21924;51.934;7.414;2022-07-05T15:46:53;22.70;98.30
35804;DHT22;21924;51.934;7.414;2022-07-05T15:49:44;22.60;98.10
35804;DHT22;21924;51.934;7.414;2022-07-05T15:52:28;22.50;98.90
35804;DHT22;21924;51.934;7.414;2022-07-05T15:55:12;22.60;98.70
35804;DHT22;21924;51.934;7.414;2022-07-05T15:57:56;22.60;99.20
35804;DHT22;21924;51.934;7.414;2022-07-05T16:00:40;22.80;99.40
35804;DHT22;21924;51.934;7.414;2022-07-05T16:03:28;22.80;99.90
35804;DHT22;21924;51.934;7.414;2022-07-05T16:06:15;22.50;99.90
35804;DHT22;21924;51.934;7.414;2022-07-05T16:09:00;22.40;99.90
35804;DHT22;21924;51.934;7.414;2022-07-05T16:11:44;22.50;99.90
35804;DHT22;21924;51.934;7.414;2022-07-05T16:14:28;22.30;99.90
35804;DHT22;21924;51.934;7.414;2022-07-05T16:17:14;22.30;99.90
35804;DHT22;21924;51.934;7.414;2022-07-05T16:19:58;22.30;99.90
35804;DHT22;21924;51.934;7.414;2022-07-05T16:22:42;22.30;99.90
35804;DHT22;21924;51.934;7.414;2022-07-05T16:25:26;22.30;99.90
35804;DHT22;21924;51.934;7.414;2022-07-05T16:28:10;22.20;99.90
35804;DHT22;21924;51.934;7.414;2022-07-05T16:30:55;22.20;99.90
35804;DHT22;21924;51.934;7.414;2022-07-05T16:33:44;22.20;99.90
35804;DHT22;21924;51.934;7.414;2022-07-05T16:36:32;22.10;99.90
35804;DHT22;21924;51.934;7.414;2022-07-05T16:39:17;22.10;99.90
35804;DHT22;21924;51.934;7.414;2022-07-05T16:42:01;21.90;99.90
35804;DHT22;21924;51.934;7.414;2022-07-05T16:44:46;21.80;99.90
35804;DHT22;21924;51.934;7.414;2022-07-05T16:47:30;21.80;99.90
35804;DHT22;21924;51.934;7.414;2022-07-05T16:50:17;22.00;99.90
35804;DHT22;21924;51.934;7.414;2022-07-05T16:53:04;22.00;99.90
35804;DHT22;21924;51.934;7.414;2022-07-05T16:55:48;21.90;99.90
35804;DHT22;21924;51.934;7.414;2022-07-05T16:58:37;21.80;99.90
35804;DHT22;21924;51.934;7.414;2022-07-05T17:01:23;21.70;99.90
35804;DHT22;21924;51.934;7.414;2022-07-05T17:04:08;21.70;99.90
35804;DHT22;21924;51.934;7.414;2022-07-05T17:06:52;21.40;99.90
35804;DHT22;21924;51.934;7.414;2022-07-05T17:09:36;21.20;99.90
35804;DHT22;21924;51.934;7.414;2022-07-05T17:12:20;21.00;99.90
35804;DHT22;21924;51.934;7.414;2022-07-05T17:15:06;21.00;99.90
35804;DHT22;21924;51.934;7.414;2022-07-05T17:17:52;20.90;99.90
35804;DHT22;21924;51.934;7.414;2022-07-05T17:20:36;20.80;99.90
35804;DHT22;21924;51.934;7.414;2022-07-05T17:23:20;20.80;99.90
35804;DHT22;21924;51.934;7.414;2022-07-05T17:26:04;20.70;99.90
35804;DHT22;21924;51.934;7.414;2022-07-05T17:28:52;20.70;99.90
35804;DHT22;21924;51.934;7.414;2022-07-05T17:31:36;21.40;99.90
35804;DHT22;21924;51.934;7.414;2022-07-05T17:34:20;21.70;99.90
35804;DHT22;21924;51.934;7.414;2022-07-05T17:37:04;21.50;99.90
35804;DHT22;21924;51.934;7.414;2022-07-05T17:39:49;21.30;99.90
35804;DHT22;21924;51.934;7.414;2022-07-05T17:42:33;21.00;99.90